Time;durP1;ratioP1;P1;durP2;ratioP2;P2;SDS_P1;SDS_P2;PMS_P1;PMS_P2;Temp;Humidity;BMP_temperature;BMP_pressure;BME280_temperature;BME280_humidity;BME280_pressure;Samples;Min_cycle;Max_cycle;Signal;HPM_P1;HPM_P2
2021/06/30 09:04:11;;;;;;;0.40;0.40;;;;;;;17.32;80.27;98760.34;5151543;27;20685;-79
2021/06/30 09:06:38;;;;;;;0.80;0.32;;;;;;;17.29;81.34;98752.59;5151508;27;20054;-79
2021/06/30 09:09:09;;;;;;;0.30;0.30;;;;;;;17.37;80.71;98754.97;5150336;27;20043;-80
2021/06/30 09:11:36;;;;;;;2.50;0.73;;;;;;;17.37;81.54;98751.41;5145279;27;20055;-80
2021/06/30 09:14:25;;;;;;;0.75;0.22;;;;;;;17.23;80.97;98764.53;5128811;28;20047;-80
2021/06/30 09:17:08;;;;;;;0.75;0.60;;;;;;;17.05;80.65;98757.25;5134039;27;20413;-80
2021/06/30 09:19:57;;;;;;;0.40;0.40;;;;;;;16.88;82.86;98768.09;5129206;28;20115;-80
2021/06/30 09:22:27;;;;;;;1.98;0.52;;;;;;;16.77;85.36;98776.03;5148402;27;20043;-80
2021/06/30 09:24:54;;;;;;;5.85;0.50;;;;;;;16.49;84.68;98787.63;5133208;27;20101;-80
2021/06/30 09:27:37;;;;;;;6.60;0.60;;;;;;;16.48;86.67;98790.59;5145601;27;20043;-80
2021/06/30 09:30:06;;;;;;;2.28;0.50;;;;;;;16.34;88.84;98781.72;5149020;27;20043;-80
2021/06/30 09:32:34;;;;;;;2.28;0.50;;;;;;;16.36;89.35;98785.88;5133405;27;20088;-80
2021/06/30 09:35:27;;;;;;;1.40;0.70;;;;;;;16.58;89.67;98782.66;5128763;28;20410;-80
2021/06/30 09:37:54;;;;;;;2.25;0.70;;;;;;;16.67;90.92;98788.66;5113868;27;20379;-80
2021/06/30 09:40:44;;;;;;;1.58;0.60;;;;;;;16.63;88.05;98783.63;5128023;27;20474;-80
2021/06/30 09:43:25;;;;;;;2.45;0.60;;;;;;;16.72;89.05;98783.28;5136337;27;20099;-80
2021/06/30 09:45:59;;;;;;;2.40;1.40;;;;;;;16.77;90.53;98783.41;5149180;27;20055;-80
2021/06/30 09:48:53;;;;;;;3.65;0.80;;;;;;;16.84;87.60;98775.91;5138347;27;20094;-80
2021/06/30 09:51:21;;;;;;;0.88;0.60;;;;;;;17.03;88.43;98782.19;5142217;27;20355;-81
2021/06/30 09:53:48;;;;;;;1.15;0.50;;;;;;;17.10;87.51;98780.19;5135736;27;20166;-81
2021/06/30 09:56:32;;;;;;;1.75;0.43;;;;;;;17.05;88.64;98771.78;5132119;27;20100;-80
2021/06/30 09:59:17;;;;;;;0.65;0.50;;;;;;;17.14;88.07;98758.56;5128250;28;20100;-81
2021/06/30 10:01:45;;;;;;;1.92;0.50;;;;;;;17.44;87.06;98766.69;5140139;27;20051;-81
2021/06/30 10:04:23;;;;;;;5.22;2.05;;;;;;;17.41;88.83;98769.91;5136861;27;20051;-80
2021/06/30 10:06:55;;;;;;;2.17;0.60;;;;;;;17.46;86.64;98769.19;5149320;27;20074;-81
2021/06/30 10:09:22;;;;;;;0.55;0.30;;;;;;;17.39;84.78;98755.59;5130247;27;20069;-80
2021/06/30 10:11:57;;;;;;;2.75;0.60;;;;;;;17.39;86.22;98773.97;5128298;28;20048;-80
2021/06/30 10:14:24;;;;;;;1.73;0.50;;;;;;;17.53;79.92;98753.41;5120114;27;20051;-81
2021/06/30 10:16:57;;;;;;;2.08;0.77;;;;;;;17.53;83.17;98756.16;5115144;28;20051;-81
2021/06/30 10:24:53;;;;;;;0.43;0.40;;;;;;;17.63;79.61;98744.56;5054574;28;20600;-82
2021/06/30 10:27:20;;;;;;;0.40;0.38;;;;;;;18.12;80.27;98760.75;5068185;28;20055;-82
2021/06/30 10:29:54;;;;;;;0.43;0.43;;;;;;;17.94;77.90;98759.81;5061514;28;20048;-81
2021/06/30 10:32:21;;;;;;;0.32;0.32;;;;;;;17.98;71.10;98738.19;5067134;28;20128;-82
2021/06/30 10:34:54;;;;;;;1.17;0.40;;;;;;;18.13;81.76;98741.25;5055060;28;20057;-82
2021/06/30 10:37:25;;;;;;;1.38;0.30;;;;;;;18.04;74.06;98740.78;5054674;28;20091;-83
2021/06/30 10:39:53;;;;;;;0.38;0.38;;;;;;;18.67;74.97;98751.91;5074623;28;20044;-81
2021/06/30 10:42:29;;;;;;;0.22;0.22;;;;;;;18.99;70.11;98747.78;5056187;28;20056;-82
2021/06/30 10:44:59;;;;;;;0.35;0.35;;;;;;;20.11;69.07;98737.53;5054774;28;20581;-81
2021/06/30 10:47:31;;;;;;;0.47;0.30;;;;;;;20.29;64.21;98741.03;5058024;28;20064;-80
2021/06/30 10:50:23;;;;;;;0.30;0.30;;;;;;;19.82;64.07;98714.00;5063412;28;20496;-80
2021/06/30 10:52:52;;;;;;;0.38;0.38;;;;;;;19.49;66.12;98722.06;5052947;28;20069;-80
2021/06/30 10:55:51;;;;;;;0.30;0.22;;;;;;;19.72;64.88;98736.72;5057617;28;20049;-80
2021/06/30 10:58:20;;;;;;;0.45;0.30;;;;;;;20.05;64.33;98740.50;5030081;28;20532;-81
2021/06/30 11:00:49;;;;;;;2.63;0.40;;;;;;;19.57;60.86;98735.44;5056078;28;20319;-80
2021/06/30 11:03:30;;;;;;;0.68;0.22;;;;;;;19.52;61.89;98724.31;5089359;28;20052;-79
2021/06/30 11:06:18;;;;;;;1.10;0.40;;;;;;;19.48;62.21;98728.69;5094565;28;20062;-79
2021/06/30 11:08:48;;;;;;;0.45;0.35;;;;;;;19.53;60.72;98723.25;5093236;28;20044;-80
2021/06/30 11:11:17;;;;;;;0.43;0.43;;;;;;;19.21;61.02;98732.16;5092996;28;20055;-80
2021/06/30 11:14:08;;;;;;;2.00;0.60;;;;;;;19.37;63.24;98744.22;5055453;28;20060;-80
2021/06/30 11:16:55;;;;;;;0.40;0.40;;;;;;;18.98;62.21;98746.94;5042041;28;20063;-79
2021/06/30 11:19:44;;;;;;;1.35;0.40;;;;;;;18.66;62.10;98752.97;5069660;28;20334;-80
2021/06/30 11:22:29;;;;;;;0.43;0.43;;;;;;;18.36;63.07;98745.81;5066919;28;20056;-80
2021/06/30 11:25:00;;;;;;;0.80;0.43;;;;;;;18.62;63.42;98737.19;5032338;28;20049;-80
2021/06/30 11:27:49;;;;;;;4.15;0.75;;;;;;;19.31;60.86;98745.25;5031665;28;20049;-80
2021/06/30 11:30:39;;;;;;;3.88;0.88;;;;;;;20.16;61.16;98736.78;5044854;28;20084;-80
2021/06/30 11:33:13;;;;;;;;;;;;;;;21.07;59.35;98740.72;5052288;28;20396;-80
2021/06/30 11:35:44;;;;;;;0.40;0.40;;;;;;;21.07;56.32;98729.66;5051285;28;20396;-79
2021/06/30 11:38:14;;;;;;;1.08;0.55;;;;;;;21.13;56.03;98716.72;5035085;28;20053;-79
2021/06/30 11:40:56;;;;;;;5.10;0.70;;;;;;;20.92;55.97;98708.25;5040700;28;20141;-79
2021/06/30 11:43:25;;;;;;;1.08;0.40;;;;;;;21.36;53.35;98708.03;5052020;28;20055;-80
2021/06/30 11:45:55;;;;;;;0.25;0.25;;;;;;;21.00;52.76;98699.50;5039299;28;20083;-78
2021/06/30 11:48:22;;;;;;;3.10;0.40;;;;;;;21.20;53.66;98707.09;5038203;28;20049;-81
2021/06/30 11:50:58;;;;;;;0.73;0.45;;;;;;;21.39;56.06;98714.94;5064643;28;20048;-79
2021/06/30 11:53:40;;;;;;;0.80;0.50;;;;;;;21.18;56.91;98705.69;5051788;28;20059;-80
2021/06/30 11:56:11;;;;;;;6.65;0.80;;;;;;;20.81;58.12;98721.16;5051171;28;20045;-79
2021/06/30 11:58:51;;;;;;;1.20;0.45;;;;;;;20.52;56.40;98702.09;5044485;28;20506;-79
2021/06/30 12:01:26;;;;;;;4.88;0.60;;;;;;;20.46;55.71;98716.94;5044184;28;20049;-79
2021/06/30 12:04:11;;;;;;;0.55;0.35;;;;;;;20.47;57.27;98713.09;5040952;28;20454;-79
2021/06/30 12:06:39;;;;;;;0.57;0.30;;;;;;;20.82;58.92;98705.41;5055695;28;20052;-80
2021/06/30 12:09:08;;;;;;;5.95;0.60;;;;;;;21.17;56.22;98721.44;5047024;28;20435;-78
2021/06/30 12:11:38;;;;;;;1.85;0.40;;;;;;;20.93;54.43;98728.44;5049840;28;20053;-80
2021/06/30 12:14:07;;;;;;;0.38;0.32;;;;;;;20.76;57.60;98725.81;5040985;28;20115;-80
2021/06/30 12:16:43;;;;;;;2.75;0.40;;;;;;;20.98;56.82;98729.31;5050743;28;20045;-79
2021/06/30 12:19:10;;;;;;;0.73;0.30;;;;;;;20.58;55.43;98715.94;5041482;28;20258;-79
2021/06/30 12:21:38;;;;;;;1.20;0.40;;;;;;;20.45;56.50;98712.50;5051114;28;20060;-80
2021/06/30 12:24:13;;;;;;;0.35;0.35;;;;;;;20.09;57.86;98722.34;5049042;28;20071;-79
2021/06/30 12:27:03;;;;;;;0.40;0.35;;;;;;;20.06;59.42;98726.44;5035801;28;20327;-79
2021/06/30 12:29:31;;;;;;;0.30;0.30;;;;;;;19.72;60.01;98715.53;5048038;28;20479;-79
2021/06/30 12:31:58;;;;;;;18.83;2.78;;;;;;;19.60;61.88;98704.59;5050284;28;20053;-79
2021/06/30 12:34:25;;;;;;;0.60;0.50;;;;;;;19.69;64.48;98709.66;5030659;28;20056;-79
2021/06/30 12:36:59;;;;;;;15.05;1.48;;;;;;;19.70;62.35;98714.91;5048263;28;20056;-79
2021/06/30 12:39:28;;;;;;;4.97;0.40;;;;;;;19.82;63.56;98709.31;5050996;28;20132;-78
2021/06/30 12:41:59;;;;;;;0.43;0.43;;;;;;;20.18;64.60;98733.75;5052598;28;20076;-78
2021/06/30 12:44:32;;;;;;;0.40;0.40;;;;;;;20.19;60.62;98735.41;5052346;28;20056;-79
2021/06/30 12:47:23;;;;;;;0.57;0.28;;;;;;;20.19;61.45;98739.00;5050912;28;20052;-79
2021/06/30 12:50:02;;;;;;;0.22;0.22;;;;;;;19.97;63.71;98739.03;5038762;28;20061;-79
2021/06/30 12:52:30;;;;;;;0.20;0.20;;;;;;;19.97;61.08;98745.34;5049019;28;20044;-79
2021/06/30 12:55:11;;;;;;;1.55;0.30;;;;;;;19.52;62.63;98740.03;5041926;28;20056;-79
2021/06/30 12:58:04;;;;;;;0.30;0.30;;;;;;;19.18;67.65;98748.34;5050215;28;20056;-79
2021/06/30 13:00:34;;;;;;;0.30;0.30;;;;;;;18.99;69.34;98742.28;5049929;28;20190;-79
2021/06/30 13:03:12;;;;;;;2.80;0.40;;;;;;;18.86;71.71;98744.28;5045314;28;20563;-78
2021/06/30 13:05:40;;;;;;;1.48;0.47;;;;;;;19.09;72.88;98750.72;5042196;28;20106;-79
2021/06/30 13:08:28;;;;;;;0.40;0.40;;;;;;;19.20;69.56;98743.44;5050247;28;20061;-78
2021/06/30 13:11:14;;;;;;;0.43;0.43;;;;;;;19.08;68.02;98735.25;5042744;28;20053;-79
2021/06/30 13:13:58;;;;;;;0.65;0.50;;;;;;;19.14;70.19;98725.16;5058424;28;20060;-79
2021/06/30 13:16:27;;;;;;;0.40;0.40;;;;;;;19.39;71.28;98728.28;5040012;28;20048;-79
2021/06/30 13:18:56;;;;;;;0.85;0.32;;;;;;;19.43;70.97;98726.69;5052336;28;20067;-79
2021/06/30 13:21:41;;;;;;;1.65;0.35;;;;;;;19.45;70.30;98715.41;5044744;28;20053;-79
2021/06/30 13:24:21;;;;;;;0.60;0.40;;;;;;;19.57;67.06;98718.03;5038565;28;20046;-81
2021/06/30 13:27:24;;;;;;;0.40;0.40;;;;;;;19.34;69.29;98724.63;5032739;28;20380;-80
2021/06/30 13:35:27;;;;;;;0.40;0.40;;;;;;;18.77;69.90;98709.91;5050929;28;20060;-81
2021/06/30 13:37:56;;;;;;;0.60;0.25;;;;;;;18.67;69.17;98710.59;5039200;28;20042;-80
2021/06/30 13:40:23;;;;;;;2.10;0.40;;;;;;;18.61;69.52;98699.72;5030107;28;20487;-80
2021/06/30 13:43:04;;;;;;;;;;;;;;;;;;;;;
2021/06/30 13:45:39;;;;;;;0.40;0.40;;;;;;;18.66;69.61;98697.91;5046457;28;20061;-79
2021/06/30 13:48:10;;;;;;;2.40;0.32;;;;;;;18.82;69.75;98698.16;5049673;28;20094;-80
2021/06/30 13:50:38;;;;;;;0.60;0.50;;;;;;;18.78;68.05;98689.56;5041457;28;20460;-79
2021/06/30 13:53:08;;;;;;;0.30;0.30;;;;;;;18.99;70.53;98687.19;5054302;28;20052;-80
2021/06/30 13:55:35;;;;;;;0.80;0.38;;;;;;;18.97;71.19;98692.09;5046907;28;20049;-79
2021/06/30 13:58:04;;;;;;;3.38;0.50;;;;;;;19.06;68.26;98698.88;5034328;28;20064;-79
2021/06/30 14:00:31;;;;;;;0.28;0.28;;;;;;;19.04;68.41;98687.25;5068375;28;20048;-79
2021/06/30 14:03:18;;;;;;;3.95;0.60;;;;;;;19.21;68.23;98690.84;5054246;28;20094;-79
2021/06/30 14:05:46;;;;;;;0.57;0.30;;;;;;;19.70;68.41;98689.28;5053140;28;20137;-79
2021/06/30 14:08:16;;;;;;;0.30;0.30;;;;;;;19.89;65.25;98692.59;5043453;28;20065;-79
2021/06/30 14:10:48;;;;;;;0.70;0.50;;;;;;;19.97;62.80;98701.22;5044117;28;20153;-80
2021/06/30 14:13:15;;;;;;;3.90;0.55;;;;;;;19.80;60.56;98676.47;5043571;28;20114;-79
2021/06/30 14:15:42;;;;;;;2.47;0.35;;;;;;;19.82;61.66;98695.53;5040195;28;20045;-81
2021/06/30 14:18:10;;;;;;;0.73;0.38;;;;;;;19.80;61.90;98683.94;5044769;28;20106;-80
2021/06/30 14:20:39;;;;;;;0.28;0.28;;;;;;;19.88;62.25;98690.91;5053771;28;20052;-78
2021/06/30 14:23:25;;;;;;;2.38;0.40;;;;;;;19.80;60.74;98687.50;5052390;28;20091;-79
2021/06/30 14:25:53;;;;;;;0.57;0.28;;;;;;;19.61;59.94;98681.44;5052785;28;20132;-79
2021/06/30 14:28:20;;;;;;;2.00;0.40;;;;;;;19.90;60.33;98689.56;5052663;28;20053;-79
2021/06/30 14:30:51;;;;;;;0.30;0.30;;;;;;;19.92;61.82;98678.28;5052287;28;20057;-80
2021/06/30 14:33:19;;;;;;;0.50;0.30;;;;;;;19.96;60.20;98682.16;5057789;28;20088;-79
2021/06/30 14:35:48;;;;;;;0.50;0.50;;;;;;;19.92;59.86;98684.63;5036831;28;20427;-79
2021/06/30 14:38:18;;;;;;;1.55;0.40;;;;;;;19.96;60.27;98676.66;5033104;28;20057;-80
2021/06/30 14:40:45;;;;;;;0.32;0.32;;;;;;;20.26;62.31;98689.13;5046846;28;20044;-81
2021/06/30 14:43:39;;;;;;;0.35;0.25;;;;;;;20.28;58.41;98704.34;5053294;28;20071;-81
2021/06/30 14:46:06;;;;;;;1.40;0.47;;;;;;;20.51;60.50;98694.06;5033160;28;20358;-82
2021/06/30 14:48:36;;;;;;;0.65;0.50;;;;;;;20.93;58.26;98698.88;5035233;28;20127;-82
2021/06/30 14:51:03;;;;;;;2.00;0.30;;;;;;;20.86;56.23;98679.75;5052830;28;20056;-80
2021/06/30 14:53:31;;;;;;;4.95;0.63;;;;;;;21.50;57.00;98689.06;5043303;28;20064;-81
2021/06/30 14:55:59;;;;;;;0.30;0.30;;;;;;;20.88;58.65;98689.72;5032383;28;20485;-82
2021/06/30 14:58:28;;;;;;;0.30;0.30;;;;;;;21.21;56.64;98683.91;5037574;28;20053;-81
2021/06/30 15:00:55;;;;;;;0.75;0.32;;;;;;;21.26;56.96;98698.81;5038663;28;20136;-82
2021/06/30 15:03:24;;;;;;;0.90;0.30;;;;;;;20.33;58.78;98689.75;5033913;28;20049;-82
2021/06/30 15:05:53;;;;;;;3.08;0.47;;;;;;;20.30;61.45;98693.84;5044387;28;20098;-81
2021/06/30 15:08:20;;;;;;;2.28;0.38;;;;;;;20.19;61.34;98685.72;5072832;28;20045;-80
2021/06/30 15:10:48;;;;;;;0.40;0.40;;;;;;;19.90;60.53;98663.91;5039667;28;20053;-81
2021/06/30 15:13:15;;;;;;;0.40;0.40;;;;;;;19.78;62.70;98678.66;5032737;28;20050;-82
2021/06/30 15:15:42;;;;;;;3.05;0.60;;;;;;;19.93;64.37;98661.47;5044867;28;20487;-81
2021/06/30 15:18:09;;;;;;;0.82;0.40;;;;;;;19.81;63.45;98669.03;5043874;28;20100;-81
2021/06/30 15:20:36;;;;;;;0.50;0.50;;;;;;;19.66;62.73;98658.63;5043888;28;20057;-80
2021/06/30 15:23:04;;;;;;;0.60;0.32;;;;;;;19.88;63.23;98664.16;5051150;28;20053;-81
2021/06/30 15:25:31;;;;;;;2.53;0.45;;;;;;;19.90;63.35;98670.25;5051785;28;20041;-82
2021/06/30 15:27:59;;;;;;;2.85;0.70;;;;;;;19.83;63.07;98666.00;5042751;28;20103;-80
2021/06/30 15:30:26;;;;;;;4.13;0.50;;;;;;;20.03;65.49;98659.91;5034699;28;20115;-81
2021/06/30 15:32:52;;;;;;;3.53;0.40;;;;;;;19.87;65.20;98665.25;5051837;28;20053;-82
2021/06/30 15:35:19;;;;;;;8.77;1.17;;;;;;;19.66;68.84;98666.06;5052523;28;20049;-80
2021/06/30 15:37:46;;;;;;;4.07;0.60;;;;;;;19.48;71.18;98654.28;5051929;28;20060;-80
2021/06/30 15:40:14;;;;;;;1.58;0.40;;;;;;;19.37;70.42;98660.72;5060673;28;20109;-80
2021/06/30 15:42:42;;;;;;;3.85;0.80;;;;;;;19.61;71.40;98640.09;5058713;28;20045;-80
2021/06/30 15:45:13;;;;;;;2.90;0.75;;;;;;;19.46;70.91;98653.69;5031962;28;20068;-80
2021/06/30 15:47:40;;;;;;;1.02;0.60;;;;;;;19.42;71.60;98653.38;5036509;28;20412;-80
2021/06/30 15:50:08;;;;;;;0.38;0.35;;;;;;;18.99;72.19;98637.59;5051964;28;20519;-81
2021/06/30 15:52:39;;;;;;;0.40;0.40;;;;;;;18.88;72.76;98636.63;5051755;28;20057;-80
2021/06/30 15:55:06;;;;;;;0.68;0.38;;;;;;;18.47;70.87;98642.28;5033691;28;20053;-79
2021/06/30 15:57:33;;;;;;;4.03;0.60;;;;;;;18.39;72.01;98659.19;5037940;28;20075;-79
2021/06/30 16:00:00;;;;;;;0.30;0.30;;;;;;;18.25;72.61;98649.59;5050770;28;20060;-79
2021/06/30 16:02:30;;;;;;;1.15;0.40;;;;;;;18.23;69.98;98655.31;5044230;28;20480;-78
2021/06/30 16:04:57;;;;;;;0.22;0.22;;;;;;;17.73;74.92;98678.81;5039460;28;20203;-78
2021/06/30 16:07:24;;;;;;;1.77;0.55;;;;;;;17.54;77.22;98680.03;5051638;28;20462;-79
2021/06/30 16:09:51;;;;;;;0.75;0.47;;;;;;;17.54;81.34;98677.28;5051862;28;20056;-78
2021/06/30 16:12:19;;;;;;;6.50;0.88;;;;;;;17.33;80.44;98674.94;5031264;28;20053;-78
2021/06/30 16:14:46;;;;;;;3.15;0.60;;;;;;;17.16;78.68;98663.88;5037524;28;20060;-78
2021/06/30 16:17:13;;;;;;;1.05;0.60;;;;;;;17.42;78.96;98669.06;5050859;28;20134;-78
2021/06/30 16:19:44;;;;;;;1.08;0.50;;;;;;;17.64;80.02;98681.13;5051680;28;20083;-78
2021/06/30 16:22:11;;;;;;;0.93;0.52;;;;;;;17.75;80.52;98673.06;5036836;28;20057;-79
2021/06/30 16:24:39;;;;;;;0.45;0.45;;;;;;;17.70;79.69;98671.03;5031166;28;20131;-79
2021/06/30 16:27:06;;;;;;;0.50;0.50;;;;;;;17.58;79.26;98681.25;5039647;28;20049;-79
2021/06/30 16:29:33;;;;;;;2.85;0.70;;;;;;;17.51;79.18;98679.47;5051117;28;20045;-78
2021/06/30 16:32:00;;;;;;;0.70;0.40;;;;;;;17.43;79.74;98689.97;5047599;28;20081;-78
2021/06/30 16:34:27;;;;;;;6.82;1.83;;;;;;;17.52;81.80;98691.28;5031324;28;20551;-78
2021/06/30 16:36:57;;;;;;;16.67;2.05;;;;;;;17.54;81.40;98691.03;5032668;28;20049;-78
2021/06/30 16:39:24;;;;;;;7.80;0.90;;;;;;;17.53;79.55;98687.47;5042661;28;20132;-77
2021/06/30 16:41:51;;;;;;;0.20;0.20;;;;;;;17.50;79.41;98688.78;5031469;28;20053;-78
2021/06/30 16:44:18;;;;;;;3.03;0.45;;;;;;;17.47;80.46;98688.44;5030073;28;20045;-77
2021/06/30 16:46:46;;;;;;;1.77;0.45;;;;;;;17.53;80.07;98681.97;5041981;28;20044;-78
2021/06/30 16:49:13;;;;;;;3.10;0.60;;;;;;;17.47;82.10;98674.69;5047457;28;20061;-78
2021/06/30 16:51:40;;;;;;;1.25;0.73;;;;;;;17.41;82.15;98678.41;5030704;28;20056;-78
2021/06/30 16:54:08;;;;;;;2.92;1.17;;;;;;;17.45;81.31;98682.34;5031235;28;20112;-79
2021/06/30 16:56:35;;;;;;;0.80;0.40;;;;;;;17.64;80.06;98699.50;5050927;28;20423;-79
2021/06/30 16:59:04;;;;;;;1.17;0.60;;;;;;;17.48;80.65;98684.63;5048963;28;20052;-79
2021/06/30 17:01:33;;;;;;;1.53;0.60;;;;;;;17.63;80.64;98690.44;5030605;28;20053;-79
2021/06/30 17:04:00;;;;;;;1.83;0.47;;;;;;;17.58;78.93;98683.97;5035414;28;20041;-78
2021/06/30 17:06:28;;;;;;;2.35;0.55;;;;;;;17.49;78.70;98689.00;5041014;28;20046;-78
2021/06/30 17:08:55;;;;;;;1.70;0.95;;;;;;;17.49;77.63;98691.75;5031216;28;20061;-78
2021/06/30 17:11:24;;;;;;;0.80;0.40;;;;;;;17.28;79.47;98679.50;5030971;28;20115;-78
2021/06/30 17:13:51;;;;;;;1.42;0.40;;;;;;;17.45;79.97;98679.59;5030158;28;20451;-78
2021/06/30 17:16:18;;;;;;;3.58;0.60;;;;;;;17.43;80.65;98679.84;5032494;28;20050;-79
2021/06/30 17:18:44;;;;;;;0.40;0.40;;;;;;;17.37;80.28;98691.78;5051033;28;20045;-79
2021/06/30 17:21:11;;;;;;;0.38;0.38;;;;;;;17.38;78.59;98698.94;5051066;28;20106;-79
2021/06/30 17:23:38;;;;;;;5.28;0.52;;;;;;;17.42;82.09;98683.66;5036542;28;20100;-78
2021/06/30 17:26:06;;;;;;;0.77;0.40;;;;;;;17.36;80.58;98706.59;5035215;28;20045;-78
2021/06/30 17:28:36;;;;;;;0.80;0.40;;;;;;;17.25;81.26;98689.06;5038870;28;20099;-77
2021/06/30 17:31:03;;;;;;;1.20;0.70;;;;;;;17.03;79.92;98679.75;5042017;28;20061;-78
2021/06/30 17:33:33;;;;;;;0.88;0.45;;;;;;;17.33;81.61;98707.09;5049961;28;20485;-78
2021/06/30 17:36:02;;;;;;;0.75;0.40;;;;;;;17.21;80.02;98695.25;5049022;28;20128;-78
2021/06/30 17:38:32;;;;;;;0.80;0.30;;;;;;;17.24;82.08;98683.81;5046808;28;20080;-78
2021/06/30 17:40:59;;;;;;;0.20;0.20;;;;;;;17.33;79.41;98696.09;5034142;28;20519;-78
2021/06/30 17:43:29;;;;;;;0.20;0.20;;;;;;;17.51;80.13;98700.63;5034144;28;20405;-78
2021/06/30 17:45:58;;;;;;;0.40;0.30;;;;;;;17.29;79.93;98687.50;5047922;28;20076;-79
2021/06/30 17:48:24;;;;;;;0.20;0.20;;;;;;;17.43;78.98;98689.97;5053103;28;20080;-79
2021/06/30 17:50:51;;;;;;;1.33;0.57;;;;;;;17.51;82.43;98693.19;5041632;28;20111;-79
2021/06/30 17:53:18;;;;;;;0.88;0.50;;;;;;;17.51;79.86;98695.13;5053120;28;20072;-79
2021/06/30 17:55:45;;;;;;;0.70;0.60;;;;;;;17.34;77.31;98687.63;5054010;28;20044;-78
2021/06/30 17:58:12;;;;;;;0.40;0.40;;;;;;;17.45;80.35;98698.84;5052895;28;20488;-78
2021/06/30 18:00:39;;;;;;;0.45;0.40;;;;;;;17.44;81.41;98708.16;5051798;28;20497;-78
2021/06/30 18:03:07;;;;;;;0.50;0.50;;;;;;;17.58;81.64;98704.06;5036630;28;20102;-79
2021/06/30 18:05:35;;;;;;;3.00;0.40;;;;;;;17.50;80.94;98697.03;5051300;28;20049;-79
2021/06/30 18:08:02;;;;;;;0.38;0.30;;;;;;;17.45;82.03;98688.69;5045226;28;20460;-80
2021/06/30 18:10:29;;;;;;;0.52;0.30;;;;;;;17.41;84.07;98705.88;5044179;28;20123;-79
2021/06/30 18:12:56;;;;;;;0.55;0.50;;;;;;;17.27;84.13;98683.34;5039956;28;20416;-78
2021/06/30 18:15:23;;;;;;;0.63;0.30;;;;;;;17.39;82.57;98691.53;5033161;28;20049;-79
2021/06/30 18:17:52;;;;;;;0.43;0.43;;;;;;;17.31;84.03;98701.84;5043850;28;20041;-78
2021/06/30 18:20:23;;;;;;;0.75;0.60;;;;;;;17.15;86.83;98686.09;5054198;28;20081;-78
2021/06/30 18:22:50;;;;;;;4.85;0.60;;;;;;;17.28;83.60;98694.06;5048392;28;20057;-79
2021/06/30 18:25:19;;;;;;;3.67;0.47;;;;;;;17.01;83.63;98681.91;5052565;28;20055;-79
2021/06/30 18:27:46;;;;;;;1.25;0.57;;;;;;;17.04;85.95;98692.41;5049928;28;20458;-78
2021/06/30 18:30:14;;;;;;;0.55;0.50;;;;;;;17.22;85.63;98696.94;5050017;28;20052;-79
2021/06/30 18:32:41;;;;;;;0.38;0.38;;;;;;;17.12;86.61;98703.88;5051509;28;20081;-78
2021/06/30 18:35:09;;;;;;;1.65;0.95;;;;;;;16.87;88.56;98695.03;5043619;28;20072;-78
2021/06/30 18:37:37;;;;;;;1.20;0.80;;;;;;;16.84;88.35;98714.69;5046889;28;20797;-78
2021/06/30 18:40:06;;;;;;;1.48;0.63;;;;;;;16.76;89.19;98699.41;5041050;28;20412;-79
2021/06/30 18:42:32;;;;;;;0.60;0.60;;;;;;;16.70;87.71;98692.94;5034214;28;20045;-79
2021/06/30 18:44:59;;;;;;;0.82;0.82;;;;;;;16.86;87.35;98698.81;5035919;28;20065;-79
2021/06/30 18:47:26;;;;;;;0.88;0.50;;;;;;;16.85;88.27;98694.41;5033606;28;20055;-79
2021/06/30 18:49:53;;;;;;;0.77;0.60;;;;;;;16.85;85.62;98706.22;5035876;28;20471;-79
2021/06/30 18:52:19;;;;;;;1.38;0.55;;;;;;;16.66;87.02;98696.41;5053071;28;20060;-79
2021/06/30 18:54:47;;;;;;;4.28;0.50;;;;;;;16.72;87.68;98704.50;5042627;28;20122;-79
2021/06/30 18:57:14;;;;;;;0.50;0.50;;;;;;;16.68;88.64;98735.41;5054084;28;20055;-79
2021/06/30 18:59:41;;;;;;;7.20;1.42;;;;;;;16.55;92.75;98744.69;5046485;28;20045;-81
2021/06/30 19:02:09;;;;;;;9.85;0.60;;;;;;;15.93;90.58;98749.31;5052354;28;20076;-79
2021/06/30 19:04:36;;;;;;;6.20;0.88;;;;;;;15.20;94.27;98766.50;5049963;28;20049;-79
2021/06/30 19:07:06;;;;;;;3.95;0.70;;;;;;;14.48;94.65;98781.34;5041876;28;20552;-81
2021/06/30 19:09:33;;;;;;;12.38;0.43;;;;;;;14.27;95.01;98771.59;5039345;28;20057;-81
2021/06/30 19:12:01;;;;;;;0.20;0.20;;;;;;;13.97;95.95;98774.88;5033442;28;20052;-80
2021/06/30 19:14:28;;;;;;;0.95;0.50;;;;;;;13.95;97.58;98784.34;5041066;28;20057;-80
2021/06/30 19:16:54;;;;;;;0.68;0.30;;;;;;;13.81;98.68;98770.72;5032752;28;20439;-80
2021/06/30 19:19:21;;;;;;;0.77;0.20;;;;;;;13.89;99.14;98768.81;5044837;28;20041;-81
2021/06/30 19:21:51;;;;;;;3.58;0.57;;;;;;;13.94;99.92;98766.25;5037836;28;20540;-82
2021/06/30 19:24:18;;;;;;;;;;;;;;;14.07;99.61;98789.97;5035015;28;20060;-80
2021/06/30 19:26:45;;;;;;;0.45;0.40;;;;;;;14.03;98.81;98781.38;5045122;28;20372;-81
2021/06/30 19:29:13;;;;;;;0.40;0.28;;;;;;;14.13;98.98;98779.00;5049157;28;20099;-81
2021/06/30 19:31:44;;;;;;;2.00;0.55;;;;;;;14.16;99.06;98783.19;5037851;28;20045;-81
2021/06/30 19:34:13;;;;;;;0.40;0.40;;;;;;;14.12;98.86;98774.59;5034440;28;20060;-81
2021/06/30 19:36:40;;;;;;;0.77;0.40;;;;;;;14.01;99.29;98775.28;5042196;28;20404;-81
2021/06/30 19:39:08;;;;;;;1.77;0.25;;;;;;;14.01;100.00;98788.94;5033071;28;20292;-81
2021/06/30 19:41:35;;;;;;;0.63;0.40;;;;;;;13.95;100.00;98785.16;5049901;28;20049;-82
2021/06/30 19:44:02;;;;;;;1.00;0.57;;;;;;;13.99;100.00;98793.78;5033174;28;20100;-81
2021/06/30 19:46:31;;;;;;;1.20;0.50;;;;;;;14.11;100.00;98804.88;5058106;28;20095;-81
2021/06/30 19:48:58;;;;;;;2.50;0.50;;;;;;;14.19;100.00;98815.56;5051215;28;20432;-81
2021/06/30 19:51:30;;;;;;;2.50;0.45;;;;;;;14.31;100.00;98813.00;5051394;28;20045;-81
2021/06/30 19:53:57;;;;;;;1.10;0.32;;;;;;;14.32;100.00;98809.22;5048105;28;20075;-82
2021/06/30 19:56:24;;;;;;;3.47;0.50;;;;;;;14.37;100.00;98822.22;5050627;28;20388;-82
2021/06/30 19:58:51;;;;;;;0.90;0.50;;;;;;;14.20;100.00;98821.91;5041844;28;20041;-81
2021/06/30 20:01:17;;;;;;;2.03;0.55;;;;;;;14.38;100.00;98819.28;5038421;28;20049;-82
2021/06/30 20:03:45;;;;;;;0.85;0.40;;;;;;;14.24;99.40;98818.50;5057726;28;20053;-82
2021/06/30 20:06:12;;;;;;;0.60;0.60;;;;;;;14.18;98.93;98833.00;5050016;28;20123;-82
2021/06/30 20:08:39;;;;;;;1.45;0.95;;;;;;;14.19;98.89;98836.59;5051137;28;20044;-81
2021/06/30 20:11:06;;;;;;;1.45;0.85;;;;;;;14.17;97.75;98831.34;5038251;28;20563;-81
2021/06/30 20:13:34;;;;;;;1.02;0.80;;;;;;;14.16;99.15;98822.28;5043677;28;20052;-81
2021/06/30 20:16:02;;;;;;;0.85;0.60;;;;;;;14.26;100.00;98838.25;5043933;28;20484;-81
2021/06/30 20:18:40;;;;;;;1.13;0.80;;;;;;;14.04;100.00;98828.66;5066444;28;20507;-80
2021/06/30 20:21:09;;;;;;;6.85;0.75;;;;;;;14.17;98.92;98850.50;5048417;28;20496;-81
2021/06/30 20:23:36;;;;;;;1.38;0.80;;;;;;;14.29;100.00;98850.66;5031755;28;20498;-80
2021/06/30 20:26:05;;;;;;;1.08;0.98;;;;;;;14.10;97.72;98850.50;5038007;28;20045;-80
2021/06/30 20:28:34;;;;;;;1.83;1.17;;;;;;;13.96;97.11;98846.97;5034960;28;20504;-81
2021/06/30 20:31:03;;;;;;;6.03;2.58;;;;;;;13.91;97.55;98849.53;5041178;28;20044;-80
2021/06/30 20:33:30;;;;;;;1.50;1.20;;;;;;;13.77;97.61;98835.03;5040406;28;20073;-80
2021/06/30 20:35:57;;;;;;;3.72;1.48;;;;;;;13.63;100.00;98839.69;5044829;28;20302;-80
2021/06/30 20:38:27;;;;;;;1.77;1.40;;;;;;;13.60;100.00;98834.66;5050517;28;20068;-80
2021/06/30 20:40:55;;;;;;;1.42;1.15;;;;;;;13.48;98.74;98833.63;5042829;28;20041;-80
2021/06/30 20:43:23;;;;;;;2.78;1.25;;;;;;;13.66;99.38;98849.38;5041833;28;20049;-79
2021/06/30 20:45:50;;;;;;;4.18;1.25;;;;;;;13.60;97.78;98839.28;5035118;28;20045;-80
2021/06/30 20:48:17;;;;;;;1.77;1.40;;;;;;;13.71;100.00;98837.78;5032154;28;20489;-79
2021/06/30 20:50:44;;;;;;;1.88;1.20;;;;;;;13.86;98.73;98852.03;5044488;28;20056;-80
2021/06/30 20:53:13;;;;;;;1.40;1.30;;;;;;;13.80;99.11;98851.03;5050701;28;20049;-79
2021/06/30 20:55:47;;;;;;;2.20;1.40;;;;;;;13.80;97.89;98848.28;5046032;28;20137;-79
2021/06/30 20:58:16;;;;;;;1.55;1.30;;;;;;;13.77;100.00;98858.78;5042267;28;20045;-79
2021/06/30 21:00:42;;;;;;;3.60;1.58;;;;;;;13.66;98.12;98838.44;5033843;28;20053;-79
2021/06/30 21:03:17;;;;;;;1.85;1.08;;;;;;;13.71;98.07;98849.56;5050307;28;20148;-79
2021/06/30 21:06:00;;;;;;;1.55;1.30;;;;;;;13.68;98.35;98843.69;5049884;28;20045;-79